• Join FlightAware (Why Join?)
  • Login
  • US Flag 
10:36AM EDT


 

Airport Tracker/Info


-or-


 

Live Flight TrackerFlight Track Log ✈ EJA829P ✈ 24-Mar-2014 ✈ KVRB - KTEB

Flight Track Log - Related Links

Times and Time Zones

All times are in EDT time to prevent confusion due to time zone crossing. See the EJA829P flight status page for this flight to view local times or setup timezone preferences in your user account.

Time Position Orientation Groundspeed Altitude Reporting Facility
EDT Latitude Longitude Course Direction KTS MPH feet Rate Location/Type
06:39PM 27.6542 -80.3875 336° Northwest 408 470 1,200  Level Miami Center
06:40PM 27.6867 -80.3322 56° Northeast 291 335 4,600 3,180 Climbing Miami Center
06:41PM 27.7256 -80.3664 322° Northwest 129 148 7,600 2,820 Climbing Miami Center
06:43PM 27.7556 -80.4986 284° West 214 246 13,100 2,460 Climbing Miami Center
06:44PM 28.2446 -80.8056 336° Northwest  Level FlightAware Approximate
06:44PM 27.8106 -80.5567 317° Northwest 238 274 15,100  Level Miami Center
06:45PM 27.8633 -80.6100 318° Northwest 253 291 16,900 1,620 Climbing Miami Center
06:46PM 27.9100 -80.6608 316° Northwest 262 302 18,400 1,440 Climbing Miami Center
06:47PM 27.9689 -80.7242 316° Northwest 274 315 19,800 1,260 Climbing Miami Center
06:48PM 28.0319 -80.7897 317° Northwest 287 330 21,000 1,200 Climbing Miami Center
06:49PM 28.0947 -80.8578 316° Northwest 302 348 22,200 1,200 Climbing Miami Center
06:50PM 28.1594 -80.9261 317° Northwest 309 356 23,400 1,200 Climbing Miami Center
06:51PM 28.2264 -80.9967 317° Northwest 321 369 24,600 1,080 Climbing Miami Center
06:52PM 28.2933 -81.0675 317° Northwest 326 375 25,600 960 Climbing Miami Center
06:53PM 28.3742 -81.1531 317° Northwest 326 375 26,800 900 Climbing Miami Center
06:54PM 28.4389 -81.2239 316° Northwest 326 375 27,700 900 Climbing Miami Center
06:55PM 28.5075 -81.2953 318° Northwest 326 375 28,600 1,020 Climbing Miami Center
06:56PM 28.5600 -81.3444 321° Northwest 323 372 29,500 1,200 Climbing Jacksonville Center
06:57PM 28.6583 -81.3572 353° North 329 379 30,700 1,440 Climbing Jacksonville Center
06:58PM 28.7606 -81.3603 358° North 345 397 32,400 1,740 Climbing Jacksonville Center
06:59PM 28.8692 -81.3706 355° North 350 403 34,200 1,740 Climbing Jacksonville Center
07:00PM 28.9675 -81.3783 356° North 350 403 35,900 1,680 Climbing Jacksonville Center
07:01PM 29.0614 -81.3914 353° North 350 403 37,600 1,380 Climbing Jacksonville Center
07:02PM 29.1492 -81.3969 357° North 338 389 38,700 660 Climbing Jacksonville Center
07:03PM 29.2411 -81.4028 357° North 326 375 39,000 120 Climbing Jacksonville Center
07:04PM 29.3433 -81.3942 North 337 388 39,000  Level Jacksonville Center
07:05PM 29.4556 -81.3542 17° North 382 440 39,000  Level Jacksonville Center
07:06PM 29.5553 -81.3217 16° North 402 463 39,000  Level Jacksonville Center
07:07PM 29.6697 -81.2839 16° North 415 478 39,000  Level Jacksonville Center
07:08PM 29.7842 -81.2461 16° North 420 483 39,000  Level Jacksonville Center
07:09PM 29.8983 -81.2083 16° North 420 483 39,000  Level Jacksonville Center
07:10PM 30.0147 -81.1656 18° North 420 483 39,000  Level Jacksonville Center
07:11PM 30.1289 -81.1250 17° North 425 489 39,000  Level Jacksonville Center
07:12PM 30.2475 -81.0867 16° North 425 489 39,000  Level Jacksonville Center
07:13PM 30.3617 -81.0461 17° North 425 489 39,000  Level Jacksonville Center
07:14PM 30.4758 -81.0053 17° North 425 489 39,000  Level Jacksonville Center
07:15PM 30.5903 -80.9669 16° North 425 489 39,000  Level Jacksonville Center
07:16PM 30.7044 -80.9283 16° North 425 489 39,000  Level Jacksonville Center
07:17PM 30.8208 -80.8872 17° North 420 483 39,000  Level Jacksonville Center
07:18PM 30.9350 -80.8483 16° North 420 483 39,000  Level Jacksonville Center
07:19PM 31.0450 -80.8097 17° North 420 483 39,000  Level Jacksonville Center
07:20PM 31.1592 -80.7683 17° North 415 478 39,000  Level Jacksonville Center
07:21PM 31.2756 -80.7317 15° North 415 478 39,000  Level Jacksonville Center
07:22PM 31.3917 -80.6925 16° North 420 483 39,000  Level Jacksonville Center
07:23PM 31.5036 -80.6508 18° North 420 483 39,000  Level Jacksonville Center
07:24PM 31.6261 -80.6089 16° North 415 478 39,000  Level Jacksonville Center
07:25PM 31.7319 -80.5719 17° North 420 483 39,000  Level Jacksonville Center
07:26PM 31.8564 -80.5272 17° North 420 483 39,000  Level Jacksonville Center
07:27PM 31.9703 -80.4853 17° North 420 483 39,000  Level Jacksonville Center
07:28PM 32.0742 -80.4506 16° North 420 483 39,000  Level Jacksonville Center
07:29PM 32.1861 -80.4083 18° North 420 483 39,000  Level Jacksonville Center
07:30PM 32.3000 -80.3683 17° North 420 483 39,000  Level Jacksonville Center
07:31PM 32.4161 -80.3258 17° North 420 483 39,000  Level Jacksonville Center
07:32PM 32.5281 -80.2858 17° North 420 483 39,000  Level Jacksonville Center
07:33PM 32.6439 -80.2431 17° North 420 483 39,000  Level Jacksonville Center
07:34PM 32.7581 -80.2025 17° North 420 483 39,000  Level Jacksonville Center
07:35PM 32.8739 -80.1594 17° North 420 483 39,000  Level Jacksonville Center
07:36PM 32.9961 -80.1161 17° North 436 502 39,000  Level Jacksonville Center
07:37PM 33.1081 -80.0756 17° North 436 502 39,000  Level Jacksonville Center
07:38PM 33.2258 -80.0294 18° North 436 502 39,000  Level Jacksonville Center
07:39PM 33.3439 -79.9861 17° North 436 502 39,000  Level Jacksonville Center
07:40PM 33.4619 -79.9447 16° North 436 502 39,000  Level Jacksonville Center
07:41PM 33.5797 -79.9011 17° North 436 502 39,000  Level Jacksonville Center
07:42PM 33.6956 -79.8597 17° North 436 502 39,000  Level Jacksonville Center
07:43PM 33.8114 -79.8156 18° North 436 502 39,000  Level Jacksonville Center
07:44PM 33.9292 -79.7714 17° North 436 502 39,000  Level Jacksonville Center
07:45PM 34.0450 -79.7272 18° North 436 502 39,000  Level Jacksonville Center
07:46PM 34.1628 -79.6828 17° North 436 502 39,000  Level Jacksonville Center
07:47PM 34.2764 -79.6333 20° North 436 502 39,000  Level Jacksonville Center
07:48PM 34.4742 -79.5319 23° Northeast 470 541 39,000  Level Washington Center
07:49PM 34.5911 -79.4669 25° Northeast 463 533 39,000  Level Washington Center
07:50PM 34.7078 -79.4044 24° Northeast 456 525 39,000  Level Washington Center
07:51PM 34.8267 -79.3417 23° Northeast 451 519 39,000  Level Washington Center
07:52PM 34.9453 -79.2786 24° Northeast 451 519 39,000  Level Washington Center
07:53PM 35.0642 -79.2156 23° Northeast 451 519 39,000  Level Washington Center
07:54PM 35.1789 -79.1522 24° Northeast 451 519 39,000  Level Washington Center
07:55PM 35.2953 -79.0886 24° Northeast 451 519 39,000  Level Washington Center
07:56PM 35.4164 -79.0225 24° Northeast 451 519 39,000  Level Washington Center
07:57PM 35.5328 -78.9611 23° Northeast 451 519 39,000  Level Washington Center
07:58PM 35.6514 -78.8972 24° Northeast 451 519 39,000  Level Washington Center
07:59PM 35.7700 -78.8303 25° Northeast 456 525 39,000  Level Washington Center
08:00PM 35.8867 -78.7658 24° Northeast 456 525 39,000  Level Washington Center
08:01PM 36.0031 -78.6989 25° Northeast 456 525 39,000  Level Washington Center
08:02PM 36.1194 -78.6364 23° Northeast 456 525 39,000  Level Washington Center
08:03PM 36.2339 -78.5689 25° Northeast 456 525 39,000  Level Washington Center
08:04PM 36.3500 -78.5061 24° Northeast 450 518 39,000  Level Washington Center
08:05PM 36.4686 -78.4408 24° Northeast 450 518 39,000  Level Washington Center
08:06PM 36.5850 -78.3728 25° Northeast 450 518 39,000  Level Washington Center
08:07PM 36.6992 -78.3069 25° Northeast 450 518 39,000  Level Washington Center
08:08PM 36.8175 -78.2408 24° Northeast 445 512 39,000  Level Washington Center
08:09PM 36.9314 -78.1747 25° Northeast 445 512 39,000  Level Washington Center
08:10PM 37.0456 -78.1081 25° Northeast 445 512 39,000  Level Washington Center
08:11PM 37.1617 -78.0417 24° Northeast 445 512 39,000  Level Washington Center
08:12PM 37.2756 -77.9747 25° Northeast 445 512 39,000  Level Washington Center
08:13PM 37.3917 -77.9078 25° Northeast 445 512 39,000  Level Washington Center
08:14PM 37.5078 -77.8406 25° Northeast 445 512 39,000  Level Washington Center
08:15PM 37.6178 -77.7522 32° Northeast 452 520 39,000  Level Washington Center
08:16PM 37.7258 -77.6528 36° Northeast 470 541 39,000  Level Washington Center
08:17PM 37.8339 -77.5533 36° Northeast 475 547 39,000  Level Washington Center
08:18PM 37.9397 -77.4558 36° Northeast 475 547 39,000  Level Washington Center
08:19PM 38.0456 -77.3611 35° Northeast 475 547 39,000 -660 Level Washington Center
08:20PM 38.1511 -77.2578 38° Northeast 475 547 37,800 -1,020 Descending Washington Center
08:21PM 38.2547 -77.1544 38° Northeast 475 547 37,000 -420 Descending Washington Center
08:22PM 38.3583 -77.0533 37° Northeast 469 540 37,000 -420 Level Washington Center
08:23PM 38.4636 -76.9519 37° Northeast 469 540 36,200 -1,380 Descending Washington Center
08:24PM 38.5650 -76.8475 39° Northeast 469 540 34,300 -1,920 Descending Washington Center
08:25PM 38.6722 -76.7431 37° Northeast 469 540 32,400 -1,920 Descending Washington Center
08:26PM 38.7794 -76.6381 37° Northeast 474 545 30,500 -1,920 Descending Washington Center
08:27PM 38.8806 -76.5331 39° Northeast 468 539 28,700 -1,860 Descending Washington Center
08:28PM 38.9814 -76.4328 38° Northeast 463 533 26,800 -1,800 Descending Washington Center
08:29PM 39.0800 -76.3322 38° Northeast 463 533 25,100 -1,440 Descending Washington Center
08:30PM 39.1764 -76.2369 37° Northeast 447 514 24,000 -660 Descending Washington Center
08:31PM 39.2831 -76.1278 38° Northeast 440 506 23,800 -1,440 Descending Washington Center
08:34PM 39.5000 -75.9167 37° Northeast 400 460 19,500 -1,920 Descending Philadelphia TRACON
08:35PM 39.5833 -75.8167 43° Northeast 390 449 17,400 -1,800 Descending Philadelphia TRACON
08:36PM 39.6667 -75.7500 32° Northeast 366 421 15,900 -1,740 Descending Philadelphia TRACON
08:37PM 39.7333 -75.6667 44° Northeast 358 412 14,200 -1,500 Descending Philadelphia TRACON
08:38PM 39.8167 -75.5833 38° Northeast 348 400 13,000 -600 Descending Philadelphia TRACON
08:39PM 39.8833 -75.5167 37° Northeast 344 396 13,000  Level Philadelphia TRACON
08:40PM 39.9833 -75.4333 33° Northeast 340 391 13,000  Level Philadelphia TRACON
08:41PM 40.0500 -75.3667 37° Northeast 342 394 13,000  Level Philadelphia TRACON
08:42PM 40.1167 -75.3000 37° Northeast 340 391 13,000 -540 Level Philadelphia TRACON
08:43PM 40.2000 -75.2333 31° Northeast 339 390 12,000 -1,260 Descending Philadelphia TRACON
08:44PM 40.2667 -75.1667 37° Northeast 298 343 10,500 -1,500 Descending Philadelphia TRACON
08:45PM 40.3667 -75.0500 42° Northeast 279 321 8,000 -1,320 Descending New York TRACON
08:46PM 40.4167 -74.9833 45° Northeast 266 306 7,000 -1,200 Descending New York TRACON
08:47PM 40.4667 -74.9000 52° Northeast 266 306 5,600 -1,380 Descending New York TRACON
08:48PM 40.5167 -74.8333 45° Northeast 256 295 4,300 -780 Descending New York TRACON
08:49PM 40.5833 -74.7833 30° Northeast 252 290 4,000 -180 Descending New York TRACON
08:50PM 40.6500 -74.7333 30° Northeast 255 293 4,000  Level New York TRACON
08:51PM 40.7000 -74.7000 27° Northeast 256 295 4,000  Level New York TRACON
08:53PM 40.7833 -74.6333 31° Northeast 253 291 4,000  Level New York TRACON
08:54PM 40.8333 -74.6000 27° Northeast 249 287 4,000 -60 Level New York TRACON
08:54PM 40.8833 -74.5500 37° Northeast 249 287 3,900 -540 Descending New York TRACON
08:55PM 40.9333 -74.4833 45° Northeast 257 296 3,000 -480 Descending New York TRACON
08:56PM 40.9500 -74.4000 75° East 253 291 3,000  Level New York TRACON
08:57PM 40.9833 -74.3167 62° Northeast 246 283 3,000 -180 Level New York TRACON
08:58PM 41.0000 -74.2333 75° East 222 255 2,700 -480 Descending New York TRACON
09:00PM 41.0000 -74.1500 90° East 205 236 2,000 -360 Descending New York TRACON
09:00PM 40.9833 -74.0833 108° East 207 238 2,000 -240 Level New York TRACON
09:01PM 40.9500 -74.0333 131° Southeast 197 227 1,600 -300 Descending New York TRACON
09:02PM 40.9000 -74.0000 153° Southeast 154 177 1,400 -540 Descending New York TRACON
09:03PM 40.8833 -74.0333 237° Southwest 114 131 600 -840 Descending New York TRACON
09:05PM 40.8500 -74.0500 169° South  Level FlightAware Approximate